Terminal Aerodrome Forecast
Issued by NWS

Home | Current Version | Previous Version | Text Only | Print | Product List | Glossary On
Versions: 1 2 3 4 5 6 7 8 9 10 11 12 13 14 15 16 17 18 19 20 21 22 23 24 25 26 27 28 29 30 31 32 33 34 35 36 37 38 39 40 41 42 43 44 45 46
000
FTAK31 PAFA 241136
TAFAQT
TAF
PAQT 241136Z 2412/2512 29008KT 5SM -SHRA BR OVC020
     FM241500 31015KT 3SM -SHRA BR OVC012
     FM242000 29010KT P6SM OVC015
     FM250300 32006KT P6SM BKN030=

USA.gov is the U.S. government's official web portal to all federal, state and local government web resources and services.